sensor_id;sensor_type;location;lat;lon;timestamp;pressure;altitude;pressure_sealevel;temperature;humidity
10946;BME280;5525;42.648;23.368;2023-06-14T00:02:26;94429.94;;;17.06;100.00
10946;BME280;5525;42.648;23.368;2023-06-14T00:04:53;94434.94;;;17.00;100.00
10946;BME280;5525;42.648;23.368;2023-06-14T00:07:33;94440.03;;;17.02;100.00
10946;BME280;5525;42.648;23.368;2023-06-14T00:10:00;94435.81;;;17.08;100.00
10946;BME280;5525;42.648;23.368;2023-06-14T00:12:27;94426.44;;;17.05;100.00
10946;BME280;5525;42.648;23.368;2023-06-14T00:14:54;94424.53;;;17.09;100.00
10946;BME280;5525;42.648;23.368;2023-06-14T00:17:22;94428.13;;;17.17;100.00
10946;BME280;5525;42.648;23.368;2023-06-14T00:19:48;94430.63;;;17.29;100.00
10946;BME280;5525;42.648;23.368;2023-06-14T00:22:15;94430.56;;;17.22;100.00
10946;BME280;5525;42.648;23.368;2023-06-14T00:24:42;94418.72;;;17.11;100.00
10946;BME280;5525;42.648;23.368;2023-06-14T00:27:09;94417.97;;;17.14;100.00
10946;BME280;5525;42.648;23.368;2023-06-14T00:29:35;94421.69;;;17.32;100.00
10946;BME280;5525;42.648;23.368;2023-06-14T00:32:02;94412.81;;;17.38;100.00
10946;BME280;5525;42.648;23.368;2023-06-14T00:34:30;94417.97;;;17.14;100.00
10946;BME280;5525;42.648;23.368;2023-06-14T00:36:57;94415.28;;;16.88;100.00
10946;BME280;5525;42.648;23.368;2023-06-14T00:39:23;94415.28;;;16.88;100.00
10946;BME280;5525;42.648;23.368;2023-06-14T00:41:50;94414.13;;;16.88;100.00
10946;BME280;5525;42.648;23.368;2023-06-14T00:44:17;94415.84;;;17.00;100.00
10946;BME280;5525;42.648;23.368;2023-06-14T00:46:45;94413.34;;;16.88;100.00
10946;BME280;5525;42.648;23.368;2023-06-14T00:49:12;94408.94;;;16.80;100.00
10946;BME280;5525;42.648;23.368;2023-06-14T00:51:42;94405.53;;;16.87;100.00
10946;BME280;5525;42.648;23.368;2023-06-14T00:54:09;94408.16;;;16.79;100.00
10946;BME280;5525;42.648;23.368;2023-06-14T00:56:36;94402.63;;;16.72;100.00
10946;BME280;5525;42.648;23.368;2023-06-14T00:59:03;94402.16;;;16.97;100.00
10946;BME280;5525;42.648;23.368;2023-06-14T01:01:30;94400.25;;;17.01;100.00
10946;BME280;5525;42.648;23.368;2023-06-14T01:03:58;94402.22;;;17.00;100.00
10946;BME280;5525;42.648;23.368;2023-06-14T01:06:32;94397.81;;;16.92;100.00
10946;BME280;5525;42.648;23.368;2023-06-14T01:09:10;94407.09;;;16.88;100.00
10946;BME280;5525;42.648;23.368;2023-06-14T01:11:47;94405.53;;;16.87;100.00
10946;BME280;5525;42.648;23.368;2023-06-14T01:14:17;94402.56;;;16.69;100.00
10946;BME280;5525;42.648;23.368;2023-06-14T01:16:44;94402.09;;;16.63;100.00
10946;BME280;5525;42.648;23.368;2023-06-14T01:19:12;94401.38;;;16.66;100.00
10946;BME280;5525;42.648;23.368;2023-06-14T01:21:39;94401.38;;;16.66;100.00
10946;BME280;5525;42.648;23.368;2023-06-14T01:24:08;94409.00;;;16.83;100.00
10946;BME280;5525;42.648;23.368;2023-06-14T01:26:36;94406.38;;;16.91;100.00
10946;BME280;5525;42.648;23.368;2023-06-14T01:29:06;94404.00;;;16.89;100.00
10946;BME280;5525;42.648;23.368;2023-06-14T01:31:34;94408.28;;;16.87;100.00
10946;BME280;5525;42.648;23.368;2023-06-14T01:34:06;94401.53;;;16.80;100.00
10946;BME280;5525;42.648;23.368;2023-06-14T01:36:34;94403.72;;;16.98;100.00
10946;BME280;5525;42.648;23.368;2023-06-14T01:39:03;94395.75;;;16.82;100.00
10946;BME280;5525;42.648;23.368;2023-06-14T01:41:32;94405.44;;;16.79;100.00
10946;BME280;5525;42.648;23.368;2023-06-14T01:44:01;94399.75;;;16.92;100.00
10946;BME280;5525;42.648;23.368;2023-06-14T01:46:28;94394.84;;;16.74;100.00
10946;BME280;5525;42.648;23.368;2023-06-14T01:48:55;94399.69;;;16.58;100.00
10946;BME280;5525;42.648;23.368;2023-06-14T01:51:21;94396.06;;;16.51;100.00
10946;BME280;5525;42.648;23.368;2023-06-14T01:53:48;94396.75;;;16.44;100.00
10946;BME280;5525;42.648;23.368;2023-06-14T01:56:15;94396.66;;;16.41;100.00
10946;BME280;5525;42.648;23.368;2023-06-14T01:58:43;94395.59;;;16.45;100.00
10946;BME280;5525;42.648;23.368;2023-06-14T02:01:09;94406.47;;;16.71;100.00
10946;BME280;5525;42.648;23.368;2023-06-14T02:03:36;94407.56;;;16.93;100.00
10946;BME280;5525;42.648;23.368;2023-06-14T02:06:04;94416.66;;;17.04;100.00
10946;BME280;5525;42.648;23.368;2023-06-14T02:08:30;94410.94;;;17.13;100.00
10946;BME280;5525;42.648;23.368;2023-06-14T02:10:57;94419.13;;;17.13;100.00
10946;BME280;5525;42.648;23.368;2023-06-14T02:13:24;94424.59;;;17.13;100.00
10946;BME280;5525;42.648;23.368;2023-06-14T02:15:52;94416.72;;;17.08;100.00
10946;BME280;5525;42.648;23.368;2023-06-14T02:18:19;94425.00;;;17.15;100.00
10946;BME280;5525;42.648;23.368;2023-06-14T02:20:46;94422.69;;;17.17;100.00
10946;BME280;5525;42.648;23.368;2023-06-14T02:23:13;94420.75;;;17.17;100.00
10946;BME280;5525;42.648;23.368;2023-06-14T02:25:40;94430.44;;;17.15;100.00
10946;BME280;5525;42.648;23.368;2023-06-14T02:28:08;94420.38;;;17.19;100.00
10946;BME280;5525;42.648;23.368;2023-06-14T02:30:35;94429.34;;;17.19;100.00
10946;BME280;5525;42.648;23.368;2023-06-14T02:33:03;94428.69;;;17.29;100.00
10946;BME280;5525;42.648;23.368;2023-06-14T02:35:30;94432.09;;;16.93;100.00
10946;BME280;5525;42.648;23.368;2023-06-14T02:37:56;94425.53;;;16.98;100.00
10946;BME280;5525;42.648;23.368;2023-06-14T02:40:24;94429.72;;;16.88;100.00
10946;BME280;5525;42.648;23.368;2023-06-14T02:42:50;94424.63;;;16.87;100.00
10946;BME280;5525;42.648;23.368;2023-06-14T02:45:17;94427.00;;;16.88;100.00
10946;BME280;5525;42.648;23.368;2023-06-14T02:47:44;94434.69;;;16.82;100.00
10946;BME280;5525;42.648;23.368;2023-06-14T02:50:12;94437.16;;;16.65;100.00
10946;BME280;5525;42.648;23.368;2023-06-14T02:52:39;94431.72;;;16.65;100.00
10946;BME280;5525;42.648;23.368;2023-06-14T02:55:07;94436.84;;;16.70;100.00
10946;BME280;5525;42.648;23.368;2023-06-14T02:57:35;94441.03;;;16.64;100.00
10946;BME280;5525;42.648;23.368;2023-06-14T03:00:02;94439.63;;;16.73;100.00
10946;BME280;5525;42.648;23.368;2023-06-14T03:02:29;94437.19;;;16.68;100.00
10946;BME280;5525;42.648;23.368;2023-06-14T03:04:56;94446.25;;;16.50;100.00
10946;BME280;5525;42.648;23.368;2023-06-14T03:07:28;94435.91;;;16.59;100.00
10946;BME280;5525;42.648;23.368;2023-06-14T03:09:55;94447.38;;;16.71;100.00
10946;BME280;5525;42.648;23.368;2023-06-14T03:12:21;94446.03;;;16.58;100.00
10946;BME280;5525;42.648;23.368;2023-06-14T03:14:49;94444.66;;;16.71;100.00
10946;BME280;5525;42.648;23.368;2023-06-14T03:17:16;94452.94;;;16.52;100.00
10946;BME280;5525;42.648;23.368;2023-06-14T03:19:45;94458.03;;;16.54;100.00
10946;BME280;5525;42.648;23.368;2023-06-14T03:22:11;94456.50;;;16.56;100.00
10946;BME280;5525;42.648;23.368;2023-06-14T03:24:39;94451.53;;;16.62;100.00
10946;BME280;5525;42.648;23.368;2023-06-14T03:27:06;94452.44;;;16.69;100.00
10946;BME280;5525;42.648;23.368;2023-06-14T03:29:35;94449.44;;;16.78;100.00
10946;BME280;5525;42.648;23.368;2023-06-14T03:32:02;94446.91;;;16.92;100.00
10946;BME280;5525;42.648;23.368;2023-06-14T03:34:29;94446.34;;;16.79;100.00
10946;BME280;5525;42.648;23.368;2023-06-14T03:36:56;94448.75;;;16.84;100.00
10946;BME280;5525;42.648;23.368;2023-06-14T03:39:22;94459.13;;;16.75;100.00
10946;BME280;5525;42.648;23.368;2023-06-14T03:41:50;94457.75;;;16.88;100.00
10946;BME280;5525;42.648;23.368;2023-06-14T03:44:18;94455.41;;;16.87;100.00
10946;BME280;5525;42.648;23.368;2023-06-14T03:46:45;94462.69;;;17.06;100.00
10946;BME280;5525;42.648;23.368;2023-06-14T03:49:12;94452.97;;;17.08;100.00
10946;BME280;5525;42.648;23.368;2023-06-14T03:51:38;94462.53;;;16.95;100.00
10946;BME280;5525;42.648;23.368;2023-06-14T03:54:06;94459.75;;;16.92;100.00
10946;BME280;5525;42.648;23.368;2023-06-14T03:56:33;94460.03;;;16.83;100.00
10946;BME280;5525;42.648;23.368;2023-06-14T03:59:01;94462.44;;;16.88;100.00
10946;BME280;5525;42.648;23.368;2023-06-14T04:01:28;94461.38;;;16.96;100.00
10946;BME280;5525;42.648;23.368;2023-06-14T04:03:56;94469.66;;;17.03;100.00
10946;BME280;5525;42.648;23.368;2023-06-14T04:06:23;94465.53;;;17.16;100.00
10946;BME280;5525;42.648;23.368;2023-06-14T04:08:57;94465.66;;;17.23;100.00
10946;BME280;5525;42.648;23.368;2023-06-14T04:11:29;94458.81;;;17.07;100.00
10946;BME280;5525;42.648;23.368;2023-06-14T04:13:56;94465.53;;;17.16;100.00
10946;BME280;5525;42.648;23.368;2023-06-14T04:16:24;94470.19;;;17.42;100.00
10946;BME280;5525;42.648;23.368;2023-06-14T04:18:51;94463.84;;;17.34;100.00
10946;BME280;5525;42.648;23.368;2023-06-14T04:21:18;94465.78;;;17.34;100.00
10946;BME280;5525;42.648;23.368;2023-06-14T04:23:45;94465.25;;;17.51;100.00
10946;BME280;5525;42.648;23.368;2023-06-14T04:26:12;94473.28;;;17.40;100.00
10946;BME280;5525;42.648;23.368;2023-06-14T04:28:39;94464.56;;;17.61;100.00
10946;BME280;5525;42.648;23.368;2023-06-14T04:31:07;94463.81;;;17.97;100.00
10946;BME280;5525;42.648;23.368;2023-06-14T04:33:35;94462.44;;;17.77;100.00
10946;BME280;5525;42.648;23.368;2023-06-14T04:36:09;94457.88;;;17.91;100.00
10946;BME280;5525;42.648;23.368;2023-06-14T04:38:37;94453.75;;;18.04;100.00
10946;BME280;5525;42.648;23.368;2023-06-14T04:41:03;94458.09;;;18.09;100.00
10946;BME280;5525;42.648;23.368;2023-06-14T04:43:31;94470.50;;;18.03;100.00
10946;BME280;5525;42.648;23.368;2023-06-14T04:46:03;94467.56;;;18.18;100.00
10946;BME280;5525;42.648;23.368;2023-06-14T04:48:31;94458.28;;;18.30;100.00
10946;BME280;5525;42.648;23.368;2023-06-14T04:50:59;94468.72;;;18.21;100.00
10946;BME280;5525;42.648;23.368;2023-06-14T04:53:25;94467.19;;;18.64;100.00
10946;BME280;5525;42.648;23.368;2023-06-14T04:55:54;94469.69;;;18.83;100.00
10946;BME280;5525;42.648;23.368;2023-06-14T04:58:21;94467.13;;;19.11;100.00
10946;BME280;5525;42.648;23.368;2023-06-14T05:00:47;94474.34;;;19.36;100.00
10946;BME280;5525;42.648;23.368;2023-06-14T05:03:14;94477.97;;;18.97;100.00
10946;BME280;5525;42.648;23.368;2023-06-14T05:05:41;94477.69;;;18.58;100.00
10946;BME280;5525;42.648;23.368;2023-06-14T05:08:09;94487.88;;;18.21;100.00
10946;BME280;5525;42.648;23.368;2023-06-14T05:10:35;94486.94;;;18.43;100.00
10946;BME280;5525;42.648;23.368;2023-06-14T05:13:02;94482.72;;;18.53;100.00
10946;BME280;5525;42.648;23.368;2023-06-14T05:15:29;94483.00;;;18.40;100.00
10946;BME280;5525;42.648;23.368;2023-06-14T05:17:55;94482.78;;;18.60;100.00
10946;BME280;5525;42.648;23.368;2023-06-14T05:20:22;94488.06;;;18.86;100.00
10946;BME280;5525;42.648;23.368;2023-06-14T05:22:52;94492.25;;;19.27;100.00
10946;BME280;5525;42.648;23.368;2023-06-14T05:25:20;94488.91;;;19.58;100.00
10946;BME280;5525;42.648;23.368;2023-06-14T05:27:47;94488.66;;;19.87;100.00
10946;BME280;5525;42.648;23.368;2023-06-14T05:30:14;94499.97;;;19.82;100.00
10946;BME280;5525;42.648;23.368;2023-06-14T05:32:41;94502.75;;;19.89;100.00
10946;BME280;5525;42.648;23.368;2023-06-14T05:35:08;94510.75;;;21.42;100.00
10946;BME280;5525;42.648;23.368;2023-06-14T05:37:35;94501.97;;;21.93;100.00
10946;BME280;5525;42.648;23.368;2023-06-14T05:40:02;94502.44;;;21.70;100.00
10946;BME280;5525;42.648;23.368;2023-06-14T05:42:32;94500.97;;;21.23;100.00
10946;BME280;5525;42.648;23.368;2023-06-14T05:44:58;94496.69;;;21.12;100.00
10946;BME280;5525;42.648;23.368;2023-06-14T05:47:26;94500.13;;;21.61;100.00
10946;BME280;5525;42.648;23.368;2023-06-14T05:49:53;94513.06;;;21.57;100.00
10946;BME280;5525;42.648;23.368;2023-06-14T05:52:19;94511.38;;;22.02;100.00
10946;BME280;5525;42.648;23.368;2023-06-14T05:54:46;94500.75;;;23.20;100.00
10946;BME280;5525;42.648;23.368;2023-06-14T05:57:13;94505.63;;;23.87;100.00
10946;BME280;5525;42.648;23.368;2023-06-14T05:59:41;94501.72;;;23.85;100.00
10946;BME280;5525;42.648;23.368;2023-06-14T06:02:08;94509.75;;;23.32;100.00
10946;BME280;5525;42.648;23.368;2023-06-14T06:04:35;94513.66;;;22.18;100.00
10946;BME280;5525;42.648;23.368;2023-06-14T06:07:01;94514.75;;;22.34;100.00
10946;BME280;5525;42.648;23.368;2023-06-14T06:09:29;94515.56;;;22.93;100.00
10946;BME280;5525;42.648;23.368;2023-06-14T06:11:55;94520.06;;;22.69;100.00
10946;BME280;5525;42.648;23.368;2023-06-14T06:14:22;94509.09;;;22.62;100.00
10946;BME280;5525;42.648;23.368;2023-06-14T06:16:50;94510.94;;;22.79;100.00
10946;BME280;5525;42.648;23.368;2023-06-14T06:19:18;94516.91;;;22.71;100.00
10946;BME280;5525;42.648;23.368;2023-06-14T06:21:44;94507.59;;;22.47;100.00
10946;BME280;5525;42.648;23.368;2023-06-14T06:24:11;94527.22;;;21.42;100.00
10946;BME280;5525;42.648;23.368;2023-06-14T06:26:38;94520.56;;;21.43;100.00
10946;BME280;5525;42.648;23.368;2023-06-14T06:29:05;94513.91;;;21.30;100.00
10946;BME280;5525;42.648;23.368;2023-06-14T06:31:32;94521.66;;;21.81;100.00
10946;BME280;5525;42.648;23.368;2023-06-14T06:34:00;94527.22;;;21.45;100.00
10946;BME280;5525;42.648;23.368;2023-06-14T06:36:26;94520.22;;;21.13;100.00
10946;BME280;5525;42.648;23.368;2023-06-14T06:38:53;94532.72;;;20.58;100.00
10946;BME280;5525;42.648;23.368;2023-06-14T06:41:20;94537.81;;;20.52;100.00
10946;BME280;5525;42.648;23.368;2023-06-14T06:43:46;94527.16;;;20.19;100.00
10946;BME280;5525;42.648;23.368;2023-06-14T06:46:13;94530.63;;;20.13;100.00
10946;BME280;5525;42.648;23.368;2023-06-14T06:48:40;94538.00;;;19.94;100.00
10946;BME280;5525;42.648;23.368;2023-06-14T06:51:11;94532.03;;;19.68;100.00
10946;BME280;5525;42.648;23.368;2023-06-14T06:53:38;94543.09;;;19.96;100.00
10946;BME280;5525;42.648;23.368;2023-06-14T06:56:05;94537.25;;;20.01;100.00
10946;BME280;5525;42.648;23.368;2023-06-14T06:58:31;94541.66;;;20.23;100.00
10946;BME280;5525;42.648;23.368;2023-06-14T07:00:58;94532.69;;;20.47;100.00
10946;BME280;5525;42.648;23.368;2023-06-14T07:03:25;94535.81;;;20.42;100.00
10946;BME280;5525;42.648;23.368;2023-06-14T07:05:52;94526.47;;;20.57;100.00
10946;BME280;5525;42.648;23.368;2023-06-14T07:08:20;94537.03;;;20.73;100.00
10946;BME280;5525;42.648;23.368;2023-06-14T07:10:46;94538.25;;;21.10;100.00
10946;BME280;5525;42.648;23.368;2023-06-14T07:13:13;94534.72;;;21.38;100.00
10946;BME280;5525;42.648;23.368;2023-06-14T07:15:40;94536.22;;;21.74;100.00
10946;BME280;5525;42.648;23.368;2023-06-14T07:18:07;94530.31;;;21.68;100.00
10946;BME280;5525;42.648;23.368;2023-06-14T07:20:34;94529.06;;;23.28;100.00
10946;BME280;5525;42.648;23.368;2023-06-14T07:23:03;94534.06;;;25.93;100.00
10946;BME280;5525;42.648;23.368;2023-06-14T07:25:32;94539.94;;;30.19;96.72
10946;BME280;5525;42.648;23.368;2023-06-14T07:27:58;94540.38;;;31.03;78.21
10946;BME280;5525;42.648;23.368;2023-06-14T07:30:25;94540.41;;;31.92;71.76
10946;BME280;5525;42.648;23.368;2023-06-14T07:32:52;94537.41;;;30.12;84.20
10946;BME280;5525;42.648;23.368;2023-06-14T07:35:19;94539.47;;;31.95;75.24
10946;BME280;5525;42.648;23.368;2023-06-14T07:37:47;94537.13;;;31.05;73.51
10946;BME280;5525;42.648;23.368;2023-06-14T07:40:15;94533.00;;;29.05;85.28
10946;BME280;5525;42.648;23.368;2023-06-14T07:42:43;94525.34;;;28.02;97.38
10946;BME280;5525;42.648;23.368;2023-06-14T07:45:13;94527.25;;;28.17;99.97
10946;BME280;5525;42.648;23.368;2023-06-14T07:47:40;94522.34;;;27.48;100.00
10946;BME280;5525;42.648;23.368;2023-06-14T07:50:07;94523.56;;;26.43;100.00
10946;BME280;5525;42.648;23.368;2023-06-14T07:52:34;94527.25;;;25.98;100.00
10946;BME280;5525;42.648;23.368;2023-06-14T07:55:00;94530.38;;;25.34;100.00
10946;BME280;5525;42.648;23.368;2023-06-14T07:57:27;94538.91;;;25.43;100.00
10946;BME280;5525;42.648;23.368;2023-06-14T07:59:55;94528.78;;;25.10;100.00
10946;BME280;5525;42.648;23.368;2023-06-14T08:02:22;94525.91;;;24.64;100.00
10946;BME280;5525;42.648;23.368;2023-06-14T08:04:48;94537.13;;;24.53;100.00
10946;BME280;5525;42.648;23.368;2023-06-14T08:07:15;94533.03;;;24.35;100.00
10946;BME280;5525;42.648;23.368;2023-06-14T08:09:42;94540.41;;;24.75;100.00
10946;BME280;5525;42.648;23.368;2023-06-14T08:12:08;94539.22;;;24.99;100.00
10946;BME280;5525;42.648;23.368;2023-06-14T08:14:36;94553.16;;;24.92;100.00
10946;BME280;5525;42.648;23.368;2023-06-14T08:17:04;94554.97;;;25.94;100.00
10946;BME280;5525;42.648;23.368;2023-06-14T08:19:31;94557.06;;;29.24;93.76
10946;BME280;5525;42.648;23.368;2023-06-14T08:21:57;94556.28;;;28.00;95.92
10946;BME280;5525;42.648;23.368;2023-06-14T08:24:25;94551.53;;;27.84;100.00
10946;BME280;5525;42.648;23.368;2023-06-14T08:26:52;94568.00;;;30.58;84.30
10946;BME280;5525;42.648;23.368;2023-06-14T08:29:18;94570.81;;;33.90;62.00
10946;BME280;5525;42.648;23.368;2023-06-14T08:31:46;94572.91;;;34.66;58.28
10946;BME280;5525;42.648;23.368;2023-06-14T08:34:15;94583.19;;;35.71;52.24
10946;BME280;5525;42.648;23.368;2023-06-14T08:36:41;94586.63;;;35.02;50.73
10946;BME280;5525;42.648;23.368;2023-06-14T08:39:08;94564.31;;;32.11;58.80
10946;BME280;5525;42.648;23.368;2023-06-14T08:41:35;94572.69;;;31.13;63.89
10946;BME280;5525;42.648;23.368;2023-06-14T08:44:02;94561.69;;;28.89;78.33
10946;BME280;5525;42.648;23.368;2023-06-14T08:46:32;94554.44;;;28.67;84.28
10946;BME280;5525;42.648;23.368;2023-06-14T08:49:01;94556.38;;;27.00;92.82
10946;BME280;5525;42.648;23.368;2023-06-14T08:51:31;94546.44;;;25.66;100.00
10946;BME280;5525;42.648;23.368;2023-06-14T08:54:00;94546.50;;;25.62;100.00
10946;BME280;5525;42.648;23.368;2023-06-14T08:56:27;94534.31;;;26.41;100.00
10946;BME280;5525;42.648;23.368;2023-06-14T08:58:55;94532.63;;;26.99;100.00
10946;BME280;5525;42.648;23.368;2023-06-14T09:01:22;94541.69;;;26.68;98.58
10946;BME280;5525;42.648;23.368;2023-06-14T09:03:50;94545.97;;;26.88;98.49
10946;BME280;5525;42.648;23.368;2023-06-14T09:06:17;94537.19;;;27.57;92.68
10946;BME280;5525;42.648;23.368;2023-06-14T09:08:46;94537.84;;;28.51;87.89
10946;BME280;5525;42.648;23.368;2023-06-14T09:11:15;94538.41;;;32.74;65.54
10946;BME280;5525;42.648;23.368;2023-06-14T09:13:44;94552.44;;;36.57;50.64
10946;BME280;5525;42.648;23.368;2023-06-14T09:16:11;94559.72;;;35.74;49.01
10946;BME280;5525;42.648;23.368;2023-06-14T09:18:40;94548.94;;;31.09;59.48
10946;BME280;5525;42.648;23.368;2023-06-14T09:21:09;94539.28;;;30.15;70.68
10946;BME280;5525;42.648;23.368;2023-06-14T09:23:37;94537.81;;;29.29;76.74
10946;BME280;5525;42.648;23.368;2023-06-14T09:26:09;94533.22;;;27.58;88.88
10946;BME280;5525;42.648;23.368;2023-06-14T09:28:37;94531.31;;;26.52;99.26
10946;BME280;5525;42.648;23.368;2023-06-14T09:31:07;94532.44;;;26.55;100.00
10946;BME280;5525;42.648;23.368;2023-06-14T09:33:35;94531.06;;;26.07;100.00
10946;BME280;5525;42.648;23.368;2023-06-14T09:36:02;94530.03;;;26.37;100.00
10946;BME280;5525;42.648;23.368;2023-06-14T09:38:29;94517.59;;;26.45;100.00
10946;BME280;5525;42.648;23.368;2023-06-14T09:40:57;94521.88;;;26.85;100.00
10946;BME280;5525;42.648;23.368;2023-06-14T09:43:26;94517.50;;;27.52;97.88
10946;BME280;5525;42.648;23.368;2023-06-14T09:45:54;94515.66;;;28.35;93.83
10946;BME280;5525;42.648;23.368;2023-06-14T09:48:20;94498.91;;;27.36;93.74
10946;BME280;5525;42.648;23.368;2023-06-14T09:50:49;94518.38;;;26.65;98.14
10946;BME280;5525;42.648;23.368;2023-06-14T09:53:17;94515.13;;;25.92;100.00
10946;BME280;5525;42.648;23.368;2023-06-14T09:55:49;94506.34;;;25.54;100.00
10946;BME280;5525;42.648;23.368;2023-06-14T09:58:16;94508.22;;;25.38;100.00
10946;BME280;5525;42.648;23.368;2023-06-14T10:00:49;94498.97;;;25.48;100.00
10946;BME280;5525;42.648;23.368;2023-06-14T10:03:21;94504.31;;;26.01;100.00
10946;BME280;5525;42.648;23.368;2023-06-14T10:05:51;94490.94;;;27.83;95.69
10946;BME280;5525;42.648;23.368;2023-06-14T10:08:19;94495.53;;;30.37;81.14
10946;BME280;5525;42.648;23.368;2023-06-14T10:10:46;94502.97;;;31.80;67.44
10946;BME280;5525;42.648;23.368;2023-06-14T10:13:13;94508.63;;;30.27;68.92
10946;BME280;5525;42.648;23.368;2023-06-14T10:15:51;94500.66;;;31.88;64.16
10946;BME280;5525;42.648;23.368;2023-06-14T10:18:27;94505.00;;;34.77;51.30
10946;BME280;5525;42.648;23.368;2023-06-14T10:21:04;94503.88;;;35.82;46.08
10946;BME280;5525;42.648;23.368;2023-06-14T10:23:37;94492.97;;;35.84;44.48
10946;BME280;5525;42.648;23.368;2023-06-14T10:26:06;94497.75;;;39.16;38.46
10946;BME280;5525;42.648;23.368;2023-06-14T10:28:37;94508.75;;;39.86;36.17
10946;BME280;5525;42.648;23.368;2023-06-14T10:31:07;94512.25;;;41.28;33.46
10946;BME280;5525;42.648;23.368;2023-06-14T10:33:35;94497.13;;;36.08;38.33
10946;BME280;5525;42.648;23.368;2023-06-14T10:36:25;94488.69;;;32.68;48.45
10946;BME280;5525;42.648;23.368;2023-06-14T10:39:01;94483.03;;;30.41;55.95
10946;BME280;5525;42.648;23.368;2023-06-14T10:41:31;94478.84;;;30.37;59.34
10946;BME280;5525;42.648;23.368;2023-06-14T10:47:28;94473.47;;;31.52;56.71
10946;BME280;5525;42.648;23.368;2023-06-14T10:49:55;94470.69;;;31.52;55.32
10946;BME280;5525;42.648;23.368;2023-06-14T10:52:26;94467.47;;;30.31;59.11
10946;BME280;5525;42.648;23.368;2023-06-14T10:55:03;94455.97;;;31.97;54.25
10946;BME280;5525;42.648;23.368;2023-06-14T10:57:32;94449.31;;;31.85;56.22
10946;BME280;5525;42.648;23.368;2023-06-14T10:59:59;94450.63;;;33.92;48.95
10946;BME280;5525;42.648;23.368;2023-06-14T11:02:52;94453.31;;;36.42;44.81
10946;BME280;5525;42.648;23.368;2023-06-14T11:05:24;94453.97;;;37.87;39.17
10946;BME280;5525;42.648;23.368;2023-06-14T11:08:02;94457.13;;;38.64;37.58
10946;BME280;5525;42.648;23.368;2023-06-14T11:10:37;94445.53;;;36.11;40.65
10946;BME280;5525;42.648;23.368;2023-06-14T11:13:05;94451.13;;;36.57;38.57
10946;BME280;5525;42.648;23.368;2023-06-14T11:15:33;94445.69;;;36.73;38.44
10946;BME280;5525;42.648;23.368;2023-06-14T11:18:02;94450.31;;;35.85;38.75
10946;BME280;5525;42.648;23.368;2023-06-14T11:20:30;94437.66;;;34.77;41.26
10946;BME280;5525;42.648;23.368;2023-06-14T11:22:57;94447.63;;;34.92;40.88
10946;BME280;5525;42.648;23.368;2023-06-14T11:25:24;94435.81;;;31.93;45.93
10946;BME280;5525;42.648;23.368;2023-06-14T11:27:51;94425.56;;;31.54;49.56
10946;BME280;5525;42.648;23.368;2023-06-14T11:30:18;94421.66;;;32.92;45.16
10946;BME280;5525;42.648;23.368;2023-06-14T11:32:46;94430.00;;;34.19;41.65
10946;BME280;5525;42.648;23.368;2023-06-14T11:35:15;94428.50;;;34.47;41.17
10946;BME280;5525;42.648;23.368;2023-06-14T11:37:42;94425.94;;;34.78;41.85
10946;BME280;5525;42.648;23.368;2023-06-14T11:40:11;94428.03;;;33.72;44.69
10946;BME280;5525;42.648;23.368;2023-06-14T11:42:39;94430.47;;;33.56;44.73
10946;BME280;5525;42.648;23.368;2023-06-14T11:45:08;94427.38;;;32.98;45.21
10946;BME280;5525;42.648;23.368;2023-06-14T11:47:35;94409.44;;;31.85;47.94
10946;BME280;5525;42.648;23.368;2023-06-14T11:50:03;94404.75;;;30.57;51.54
10946;BME280;5525;42.648;23.368;2023-06-14T11:52:32;94403.84;;;29.31;57.62
10946;BME280;5525;42.648;23.368;2023-06-14T11:54:59;94395.66;;;27.45;69.74
10946;BME280;5525;42.648;23.368;2023-06-14T11:57:26;94394.03;;;27.31;75.78
10946;BME280;5525;42.648;23.368;2023-06-14T11:59:54;94386.06;;;27.33;77.63
10946;BME280;5525;42.648;23.368;2023-06-14T12:02:21;94384.50;;;27.89;74.51
10946;BME280;5525;42.648;23.368;2023-06-14T12:04:50;94377.78;;;28.28;73.90
10946;BME280;5525;42.648;23.368;2023-06-14T12:07:18;94362.59;;;27.79;76.22
10946;BME280;5525;42.648;23.368;2023-06-14T12:10:08;94368.06;;;27.54;77.97
10946;BME280;5525;42.648;23.368;2023-06-14T12:12:37;94367.38;;;27.21;79.43
10946;BME280;5525;42.648;23.368;2023-06-14T12:15:04;94369.53;;;27.99;76.53
10946;BME280;5525;42.648;23.368;2023-06-14T12:17:32;94365.59;;;27.84;76.98
10946;BME280;5525;42.648;23.368;2023-06-14T12:20:05;94365.66;;;27.68;77.09
10946;BME280;5525;42.648;23.368;2023-06-14T12:22:34;94367.09;;;27.16;79.96
10946;BME280;5525;42.648;23.368;2023-06-14T12:25:00;94360.50;;;26.65;85.06
10946;BME280;5525;42.648;23.368;2023-06-14T12:27:30;94361.53;;;26.87;82.41
10946;BME280;5525;42.648;23.368;2023-06-14T12:30:00;94358.16;;;26.80;84.05
10946;BME280;5525;42.648;23.368;2023-06-14T12:32:27;94354.16;;;26.97;84.02
10946;BME280;5525;42.648;23.368;2023-06-14T12:34:54;94349.34;;;26.69;86.40
10946;BME280;5525;42.648;23.368;2023-06-14T12:37:21;94343.50;;;26.47;91.44
10946;BME280;5525;42.648;23.368;2023-06-14T12:39:48;94345.84;;;26.81;89.89
10946;BME280;5525;42.648;23.368;2023-06-14T12:42:16;94341.59;;;26.28;94.33
10946;BME280;5525;42.648;23.368;2023-06-14T12:44:44;94350.56;;;26.16;98.41
10946;BME280;5525;42.648;23.368;2023-06-14T12:47:10;94342.91;;;26.88;90.40
10946;BME280;5525;42.648;23.368;2023-06-14T12:49:39;94338.69;;;26.67;90.89
10946;BME280;5525;42.648;23.368;2023-06-14T12:52:07;94333.91;;;26.52;92.78
10946;BME280;5525;42.648;23.368;2023-06-14T12:54:34;94336.78;;;25.96;94.60
10946;BME280;5525;42.648;23.368;2023-06-14T12:57:00;94330.84;;;26.14;95.11
10946;BME280;5525;42.648;23.368;2023-06-14T12:59:28;94340.88;;;25.72;96.31
10946;BME280;5525;42.648;23.368;2023-06-14T13:02:09;94336.22;;;25.85;97.24